Time;durP1;ratioP1;P1;durP2;ratioP2;P2;SDS_P1;SDS_P2;PMS_P1;PMS_P2;Temp;Humidity;BMP_temperature;BMP_pressure;BME280_temperature;BME280_humidity;BME280_pressure;Samples;Min_cycle;Max_cycle;Signal;HPM_P1;HPM_P2
2023/12/20 01:23:05;;;;;;;18.02;2.03;;;;;;;4.54;100.00;100574.00;5023304;28;20622;-44
2023/12/20 01:25:30;;;;;;;16.33;1.95;;;;;;;4.50;100.00;100563.47;5028942;28;20188;-42
2023/12/20 01:27:56;;;;;;;18.75;2.28;;;;;;;4.52;100.00;100561.66;5031720;28;20230;-44
2023/12/20 01:30:21;;;;;;;11.93;2.15;;;;;;;4.52;100.00;100565.19;5027292;28;20190;-42
2023/12/20 01:32:47;;;;;;;12.27;1.98;;;;;;;4.51;100.00;100563.44;5026600;28;20242;-43
2023/12/20 01:35:13;;;;;;;19.52;2.67;;;;;;;4.54;100.00;100562.50;5034830;28;20180;-43
2023/12/20 01:37:38;;;;;;;11.48;1.50;;;;;;;4.51;100.00;100570.53;5029615;28;20190;-43
2023/12/20 01:40:04;;;;;;;13.07;2.00;;;;;;;4.56;100.00;100587.25;5029431;28;20184;-42
2023/12/20 01:42:30;;;;;;;11.07;2.25;;;;;;;4.61;100.00;100566.78;5023933;28;20199;-43
2023/12/20 01:44:55;;;;;;;16.02;2.00;;;;;;;4.55;100.00;100564.28;5032357;28;20183;-43
2023/12/20 01:47:22;;;;;;;15.73;1.80;;;;;;;4.57;100.00;100543.00;5027740;28;20269;-42
2023/12/20 01:49:48;;;;;;;9.23;1.30;;;;;;;4.50;100.00;100543.13;5026593;28;20179;-43
2023/12/20 01:52:14;;;;;;;19.65;2.03;;;;;;;4.50;100.00;100545.78;5029240;28;20674;-43
2023/12/20 01:54:42;;;;;;;17.50;2.47;;;;;;;4.54;100.00;100535.97;5027177;28;20179;-44
2023/12/20 01:57:07;;;;;;;16.90;2.03;;;;;;;4.58;100.00;100540.34;5028071;28;20618;-42
2023/12/20 01:59:34;;;;;;;17.83;2.10;;;;;;;4.51;100.00;100541.34;5031592;28;20218;-41
2023/12/20 02:02:00;;;;;;;15.60;2.13;;;;;;;4.51;100.00;100538.69;5022105;28;20287;-44
2023/12/20 02:04:26;;;;;;;14.82;2.03;;;;;;;4.55;100.00;100540.41;5027107;28;20184;-41
2023/12/20 02:06:52;;;;;;;14.45;2.42;;;;;;;4.56;100.00;100542.13;5032016;28;20172;-43
2023/12/20 02:09:18;;;;;;;15.13;2.42;;;;;;;4.57;100.00;100529.75;5031316;28;20191;-42
2023/12/20 02:11:44;;;;;;;21.17;2.75;;;;;;;4.54;100.00;100534.19;5014634;28;20573;-40
2023/12/20 02:14:10;;;;;;;11.85;2.08;;;;;;;4.54;100.00;100526.22;5031435;28;20183;-43
2023/12/20 02:16:35;;;;;;;12.57;1.70;;;;;;;4.52;100.00;100512.13;5034974;28;20184;-41
2023/12/20 02:19:01;;;;;;;12.57;1.90;;;;;;;4.49;100.00;100525.44;5035716;28;20184;-41
2023/12/20 02:21:36;;;;;;;13.23;2.40;;;;;;;4.58;100.00;100512.94;5017823;28;20269;-43
2023/12/20 02:24:01;;;;;;;10.90;1.75;;;;;;;4.55;100.00;100516.53;5026972;28;20179;-41
2023/12/20 02:26:27;;;;;;;17.42;2.25;;;;;;;4.52;100.00;100503.28;5041211;28;20202;-41
2023/12/20 02:28:53;;;;;;;15.27;1.98;;;;;;;4.56;100.00;100504.13;5034078;28;20267;-41
2023/12/20 02:31:22;;;;;;;10.95;1.50;;;;;;;4.55;100.00;100503.25;5030730;28;20676;-41
2023/12/20 02:33:47;;;;;;;11.10;1.48;;;;;;;4.63;100.00;100497.78;5029872;28;20188;-42
2023/12/20 02:36:13;;;;;;;12.35;2.40;;;;;;;4.61;100.00;100488.97;5010853;28;20183;-42
2023/12/20 02:38:38;;;;;;;15.57;2.20;;;;;;;4.62;100.00;100485.44;5029112;28;20520;-43
2023/12/20 02:41:04;;;;;;;11.30;1.67;;;;;;;4.62;100.00;100470.38;5035344;28;20207;-41
2023/12/20 02:43:29;;;;;;;13.70;1.88;;;;;;;4.65;100.00;100488.03;5026455;28;20201;-43
2023/12/20 02:45:55;;;;;;;12.70;1.92;;;;;;;4.68;100.00;100488.84;5031355;28;20181;-42
2023/12/20 02:48:20;;;;;;;6.40;2.10;;;;;;;4.68;100.00;100480.88;5036473;28;20504;-43
2023/12/20 02:50:47;;;;;;;16.02;2.22;;;;;;;4.77;100.00;100466.56;5031076;28;20192;-43
2023/12/20 02:53:13;;;;;;;13.52;2.33;;;;;;;4.71;100.00;100464.88;5020495;28;20223;-42
2023/12/20 02:55:38;;;;;;;6.30;1.30;;;;;;;4.69;100.00;100461.41;5033086;28;20267;-41
2023/12/20 02:58:04;;;;;;;8.82;1.30;;;;;;;4.70;100.00;100460.50;5037573;28;20188;-41
2023/12/20 03:00:29;;;;;;;13.57;2.35;;;;;;;4.65;100.00;100434.94;5029264;28;20329;-41
2023/12/20 03:02:55;;;;;;;11.90;1.98;;;;;;;4.68;100.00;100430.47;5028732;28;20583;-43
2023/12/20 03:05:20;;;;;;;8.57;1.35;;;;;;;4.65;100.00;100427.84;5030150;28;20183;-42
2023/12/20 03:07:46;;;;;;;12.57;1.92;;;;;;;4.64;100.00;100422.59;5011113;28;20657;-41
2023/12/20 03:10:11;;;;;;;10.75;2.33;;;;;;;4.62;100.00;100416.44;5027763;28;20214;-42
2023/12/20 03:12:37;;;;;;;11.38;1.38;;;;;;;4.61;100.00;100412.03;5032621;28;20606;-43
2023/12/20 03:15:02;;;;;;;6.45;1.35;;;;;;;4.58;100.00;100418.28;5032867;28;20619;-42
2023/12/20 03:17:28;;;;;;;7.72;1.20;;;;;;;4.60;100.00;100412.97;5030382;28;20175;-43
2023/12/20 03:19:53;;;;;;;7.20;1.45;;;;;;;4.62;100.00;100409.38;5025624;28;20282;-42
2023/12/20 03:22:19;;;;;;;7.78;1.30;;;;;;;4.65;100.00;100422.56;5026168;28;20263;-42
2023/12/20 03:24:44;;;;;;;10.10;1.20;;;;;;;4.66;100.00;100399.56;5029167;28;20283;-42
2023/12/20 03:27:10;;;;;;;11.15;1.65;;;;;;;4.66;100.00;100403.09;5034913;28;20628;-42
2023/12/20 03:29:35;;;;;;;7.05;1.65;;;;;;;4.70;100.00;100399.47;5034351;28;20215;-42
2023/12/20 03:32:00;;;;;;;10.85;1.70;;;;;;;4.71;100.00;100406.50;5031998;28;20219;-42
2023/12/20 03:34:26;;;;;;;8.10;1.83;;;;;;;4.74;100.00;100394.94;5014871;28;20283;-42
2023/12/20 03:36:52;;;;;;;9.85;1.52;;;;;;;4.74;100.00;100394.94;5031829;28;20183;-40
2023/12/20 03:39:17;;;;;;;13.07;2.13;;;;;;;4.74;100.00;100392.28;5038912;28;20179;-41
2023/12/20 03:41:43;;;;;;;13.18;1.75;;;;;;;4.77;100.00;100391.34;5031976;28;20200;-42
2023/12/20 03:44:08;;;;;;;12.07;2.00;;;;;;;4.79;100.00;100382.47;5032987;28;20245;-41
2023/12/20 03:46:33;;;;;;;10.80;2.10;;;;;;;4.82;100.00;100385.06;5036477;28;20237;-39
2023/12/20 03:48:59;;;;;;;13.70;2.42;;;;;;;4.82;100.00;100390.34;5026649;28;20173;-40
2023/12/20 03:51:24;;;;;;;16.52;3.22;;;;;;;4.86;100.00;100383.22;5034671;28;20206;-41
2023/12/20 03:53:50;;;;;;;13.05;2.35;;;;;;;4.83;100.00;100367.34;5035670;28;20266;-41
2023/12/20 03:56:15;;;;;;;15.93;2.40;;;;;;;4.81;100.00;100366.50;5032625;28;20194;-41
2023/12/20 03:58:41;;;;;;;16.33;2.70;;;;;;;4.84;100.00;100359.34;5032322;28;20215;-41
2023/12/20 04:01:13;;;;;;;14.23;2.40;;;;;;;4.81;100.00;100359.44;5013429;28;20271;-41
2023/12/20 04:03:39;;;;;;;15.50;2.72;;;;;;;4.82;100.00;100358.50;5034183;28;20271;-41
2023/12/20 04:06:04;;;;;;;12.63;2.33;;;;;;;4.84;100.00;100347.88;5035085;28;20187;-41
2023/12/20 04:08:30;;;;;;;13.15;2.72;;;;;;;4.89;100.00;100351.28;5027238;28;20658;-41
2023/12/20 04:10:55;;;;;;;19.60;2.58;;;;;;;4.88;100.00;100344.25;5037096;28;20203;-40
2023/12/20 04:13:21;;;;;;;10.35;2.33;;;;;;;4.84;100.00;100345.22;5032859;28;20211;-41
2023/12/20 04:15:46;;;;;;;12.77;2.28;;;;;;;4.81;100.00;100351.47;5037992;28;20179;-42
2023/12/20 04:18:12;;;;;;;9.40;1.40;;;;;;;4.77;100.00;100346.25;5022111;28;20238;-42
2023/12/20 04:20:37;;;;;;;12.52;1.65;;;;;;;4.81;100.00;100355.88;5031741;28;20658;-40
2023/12/20 04:23:03;;;;;;;10.93;1.33;;;;;;;4.74;100.00;100350.72;5035574;28;20291;-42
2023/12/20 04:25:28;;;;;;;8.73;2.03;;;;;;;4.74;100.00;100348.09;5033646;28;20196;-41
2023/12/20 04:27:54;;;;;;;13.77;1.90;;;;;;;4.74;100.00;100347.19;5031054;28;20199;-41
2023/12/20 04:30:19;;;;;;;12.10;1.90;;;;;;;4.81;100.00;100343.50;5018999;28;20587;-41
2023/12/20 04:32:44;;;;;;;5.65;1.40;;;;;;;4.83;100.00;100335.50;5029915;28;20640;-42
2023/12/20 04:35:10;;;;;;;8.80;1.75;;;;;;;4.84;100.00;100345.22;5035274;28;20369;-44
2023/12/20 04:37:35;;;;;;;12.52;1.85;;;;;;;4.86;100.00;100335.44;5030650;28;20511;-41
2023/12/20 04:40:01;;;;;;;9.45;1.73;;;;;;;4.84;100.00;100331.94;5031460;28;20230;-41
2023/12/20 04:42:27;;;;;;;15.00;2.15;;;;;;;4.83;100.00;100333.72;5034986;28;20704;-40
2023/12/20 04:44:53;;;;;;;17.65;2.20;;;;;;;4.85;100.00;100331.88;5032447;28;20539;-42
2023/12/20 04:47:18;;;;;;;9.70;2.20;;;;;;;4.81;100.00;100335.53;5040766;28;20191;-42
2023/12/20 04:49:44;;;;;;;7.70;2.47;;;;;;;4.80;100.00;100328.47;5033463;28;20215;-41
2023/12/20 04:52:09;;;;;;;12.85;2.10;;;;;;;4.79;100.00;100317.88;5031075;28;20203;-42
2023/12/20 04:54:35;;;;;;;10.73;1.55;;;;;;;4.85;100.00;100308.00;5032191;28;20298;-41
2023/12/20 04:57:00;;;;;;;8.93;1.80;;;;;;;4.85;100.00;100320.41;5031393;28;20173;-42
2023/12/20 04:59:26;;;;;;;8.15;1.80;;;;;;;4.83;100.00;100308.94;5032173;28;20198;-41
2023/12/20 05:01:51;;;;;;;10.73;1.70;;;;;;;4.86;100.00;100311.56;5038004;28;20286;-41
2023/12/20 05:04:17;;;;;;;14.32;1.88;;;;;;;4.79;100.00;100302.84;5030627;28;20211;-41
2023/12/20 05:06:42;;;;;;;6.68;1.65;;;;;;;4.77;100.00;100299.38;5031468;28;20190;-42
2023/12/20 05:09:09;;;;;;;11.65;1.77;;;;;;;4.77;100.00;100309.97;5059032;22;20247;-40
2023/12/20 05:11:34;;;;;;;10.10;1.63;;;;;;;4.79;100.00;100297.56;5006394;28;20219;-40
2023/12/20 05:13:59;;;;;;;9.40;1.38;;;;;;;4.82;100.00;100313.38;5012300;28;20185;-42
2023/12/20 05:16:25;;;;;;;8.63;1.58;;;;;;;4.84;100.00;100295.66;5012039;28;20281;-43
2023/12/20 05:18:52;;;;;;;13.10;2.22;;;;;;;4.81;100.00;100286.88;5010761;28;20268;-40
2023/12/20 05:21:18;;;;;;;13.68;1.92;;;;;;;4.86;100.00;100287.66;5009942;28;20192;-42
2023/12/20 05:23:43;;;;;;;16.00;1.80;;;;;;;4.85;100.00;100280.59;5012746;28;20601;-43
2023/12/20 05:26:09;;;;;;;15.30;2.55;;;;;;;4.89;100.00;100275.16;5010951;28;20177;-41
2023/12/20 05:28:34;;;;;;;9.13;2.03;;;;;;;4.90;100.00;100286.69;5010098;28;20214;-42
2023/12/20 05:31:00;;;;;;;15.27;3.00;;;;;;;4.84;100.00;100279.72;5010545;28;20229;-40
2023/12/20 05:33:25;;;;;;;19.40;2.80;;;;;;;4.87;100.00;100278.78;5011541;28;20211;-42
2023/12/20 05:35:50;;;;;;;13.50;2.78;;;;;;;4.87;100.00;100269.03;5011614;28;20180;-41
2023/12/20 05:38:16;;;;;;;22.45;2.85;;;;;;;4.87;100.00;100276.13;5012153;28;20275;-42
2023/12/20 05:40:42;;;;;;;15.88;2.38;;;;;;;4.93;100.00;100276.84;5011787;28;20172;-41
2023/12/20 05:43:07;;;;;;;15.63;2.38;;;;;;;4.96;100.00;100254.66;5010081;28;20205;-42
2023/12/20 05:45:33;;;;;;;13.43;2.78;;;;;;;5.09;100.00;100255.22;5012066;28;20173;-42
2023/12/20 05:47:58;;;;;;;15.45;2.47;;;;;;;4.99;100.00;100251.94;5014000;28;20183;-40
2023/12/20 05:50:24;;;;;;;17.23;2.45;;;;;;;4.94;100.00;100245.84;5016402;28;20189;-41
2023/12/20 05:52:50;;;;;;;13.98;2.30;;;;;;;4.93;100.00;100255.59;5014350;28;20224;-42
2023/12/20 05:55:15;;;;;;;14.43;2.63;;;;;;;4.91;100.00;100249.47;5016200;28;20185;-42
2023/12/20 05:57:43;;;;;;;19.15;3.25;;;;;;;4.93;100.00;100241.47;5014000;28;20258;-42
2023/12/20 06:00:09;;;;;;;14.30;2.63;;;;;;;4.97;100.00;100244.94;5014042;28;20191;-41
2023/12/20 06:02:37;;;;;;;17.75;2.75;;;;;;;5.01;100.00;100238.59;5012983;28;20291;-41
2023/12/20 06:05:05;;;;;;;18.63;2.90;;;;;;;5.02;100.00;100249.19;5014424;28;20687;-40
2023/12/20 06:07:30;;;;;;;13.50;3.42;;;;;;;5.18;100.00;100246.16;5014803;28;20184;-43
2023/12/20 06:09:56;;;;;;;19.77;3.05;;;;;;;5.21;100.00;100240.78;5015201;28;20267;-42
2023/12/20 06:12:21;;;;;;;20.65;3.20;;;;;;;5.21;100.00;100239.00;5013735;28;20251;-41
2023/12/20 06:14:46;;;;;;;26.52;3.30;;;;;;;5.16;100.00;100236.47;5013097;28;20196;-42
2023/12/20 06:17:12;;;;;;;21.75;3.08;;;;;;;5.15;100.00;100220.56;5013979;28;20189;-41
2023/12/20 06:19:38;;;;;;;19.00;2.50;;;;;;;5.12;100.00;100229.50;5013644;28;20551;-43
2023/12/20 06:22:03;;;;;;;20.80;3.80;;;;;;;5.10;100.00;100230.44;5016668;28;20741;-41
2023/12/20 06:24:29;;;;;;;18.25;3.17;;;;;;;5.09;100.00;100220.72;5015489;28;20219;-40
2023/12/20 06:26:55;;;;;;;25.23;3.40;;;;;;;5.08;100.00;100229.59;5013823;28;20192;-41
2023/12/20 06:29:20;;;;;;;19.63;3.85;;;;;;;5.08;100.00;100225.16;5013686;28;20188;-40
2023/12/20 06:31:46;;;;;;;21.20;3.25;;;;;;;5.01;100.00;100222.69;5002633;28;20225;-42
2023/12/20 06:34:11;;;;;;;12.70;2.65;;;;;;;5.00;100.00;100223.59;5014121;28;20646;-41
2023/12/20 06:36:37;;;;;;;18.92;3.13;;;;;;;4.85;100.00;100228.38;5013017;28;20203;-41
2023/12/20 06:39:04;;;;;;;19.90;2.63;;;;;;;4.83;100.00;100239.94;5013805;28;20199;-43
2023/12/20 06:41:30;;;;;;;18.50;2.65;;;;;;;4.69;100.00;100229.66;5012922;28;20296;-41
2023/12/20 06:43:55;;;;;;;13.10;1.83;;;;;;;4.67;100.00;100210.25;5011894;28;20188;-41
2023/12/20 06:46:21;;;;;;;12.00;2.10;;;;;;;4.74;100.00;100219.81;5012943;28;20231;-41
2023/12/20 06:48:46;;;;;;;12.63;2.13;;;;;;;4.72;100.00;100208.34;5013192;28;20188;-42
2023/12/20 06:51:16;;;;;;;12.70;2.42;;;;;;;4.69;100.00;100216.41;5013224;28;20238;-42
2023/12/20 06:53:42;;;;;;;8.10;2.17;;;;;;;4.61;100.00;100218.34;5014529;28;20184;-43
2023/12/20 06:56:10;;;;;;;6.03;1.23;;;;;;;4.47;100.00;100216.91;5014777;28;20635;-41
2023/12/20 06:58:36;;;;;;;2.72;1.27;;;;;;;4.46;100.00;100220.47;5011816;28;20398;-41
2023/12/20 07:01:02;;;;;;;6.60;1.38;;;;;;;4.43;100.00;100212.56;5012146;28;20204;-43
2023/12/20 07:03:27;;;;;;;6.20;1.80;;;;;;;4.47;100.00;100210.72;5018179;28;20804;-41
2023/12/20 07:05:53;;;;;;;10.60;1.70;;;;;;;4.47;100.00;100202.78;5012493;28;20208;-42
2023/12/20 07:08:19;;;;;;;10.85;2.05;;;;;;;4.49;100.00;100214.22;5014011;28;20251;-42
2023/12/20 07:10:44;;;;;;;12.43;2.13;;;;;;;4.46;100.00;100193.94;5011757;28;20180;-41
2023/12/20 07:13:10;;;;;;;9.43;2.00;;;;;;;4.50;100.00;100192.06;5011921;28;20231;-40
2023/12/20 07:15:36;;;;;;;16.83;2.53;;;;;;;4.47;100.00;100189.50;5013806;28;20703;-40
2023/12/20 07:18:02;;;;;;;11.82;2.22;;;;;;;4.46;100.00;100187.75;5013211;28;20196;-42
2023/12/20 07:20:27;;;;;;;12.43;2.05;;;;;;;4.50;100.00;100184.13;5015569;28;20654;-42
2023/12/20 07:22:53;;;;;;;17.60;2.58;;;;;;;4.54;100.00;100194.63;5013305;28;20532;-41
2023/12/20 07:25:20;;;;;;;13.52;2.40;;;;;;;4.58;100.00;100178.66;5013894;28;20180;-41
2023/12/20 07:27:45;;;;;;;21.10;2.97;;;;;;;4.58;100.00;100179.50;5012347;28;20204;-40
2023/12/20 07:30:11;;;;;;;16.58;3.10;;;;;;;4.56;100.00;100164.53;5012230;28;20189;-39
2023/12/20 07:32:36;;;;;;;15.38;2.60;;;;;;;4.55;100.00;100171.63;5014368;28;20219;-41
2023/12/20 07:35:02;;;;;;;15.48;2.80;;;;;;;4.53;100.00;100163.72;5014419;28;20185;-40
2023/12/20 07:37:28;;;;;;;23.95;4.25;;;;;;;4.56;100.00;100164.53;5026240;28;20212;-39
2023/12/20 07:39:53;;;;;;;17.92;3.10;;;;;;;4.63;100.00;100155.50;5011292;28;20212;-40
2023/12/20 07:42:19;;;;;;;19.25;3.17;;;;;;;4.57;100.00;100161.88;5011366;28;20848;-39
2023/12/20 07:44:45;;;;;;;20.02;2.95;;;;;;;4.59;100.00;100143.22;5010946;28;20675;-41
2023/12/20 07:47:12;;;;;;;23.95;3.63;;;;;;;4.55;100.00;100145.09;5012978;28;20272;-39
2023/12/20 07:49:37;;;;;;;18.08;3.38;;;;;;;4.57;100.00;100131.78;5011802;28;20181;-41
2023/12/20 07:52:06;;;;;;;15.70;3.40;;;;;;;4.58;100.00;100134.41;5009379;28;20754;-43
2023/12/20 07:54:31;;;;;;;18.70;3.08;;;;;;;4.75;100.00;100126.91;5011879;28;20291;-43
2023/12/20 07:56:57;;;;;;;11.93;2.30;;;;;;;4.74;100.00;100134.88;5011393;28;20636;-40
2023/12/20 07:59:22;;;;;;;20.40;2.70;;;;;;;4.84;100.00;100125.78;5010806;28;20211;-42
2023/12/20 08:01:48;;;;;;;25.05;4.22;;;;;;;4.93;100.00;100122.88;5011744;28;20676;-41
2023/12/20 08:04:13;;;;;;;24.98;3.47;;;;;;;4.88;100.00;100110.66;5011706;28;20212;-41
2023/12/20 08:06:39;;;;;;;13.23;3.00;;;;;;;4.87;100.00;100116.88;5011708;28;20231;-40
2023/12/20 08:09:04;;;;;;;16.45;3.13;;;;;;;4.89;100.00;100129.19;5010470;28;20561;-43
2023/12/20 08:11:29;;;;;;;19.45;3.53;;;;;;;4.89;100.00;100128.31;5010751;28;20220;-41
2023/12/20 08:13:55;;;;;;;18.60;3.30;;;;;;;4.89;100.00;100118.56;5011918;28;20200;-43
2023/12/20 08:16:20;;;;;;;20.88;3.72;;;;;;;4.86;100.00;100120.44;5013001;28;20266;-41
2023/12/20 08:18:47;;;;;;;23.05;3.55;;;;;;;4.87;100.00;100104.47;5011161;28;20284;-41
2023/12/20 08:21:12;;;;;;;20.30;2.78;;;;;;;4.83;100.00;100115.19;5013051;28;20563;-43
2023/12/20 08:23:38;;;;;;;18.77;2.90;;;;;;;4.85;100.00;100103.63;5011760;28;20271;-43
2023/12/20 08:26:07;;;;;;;10.38;2.40;;;;;;;4.85;100.00;100079.75;5010758;28;20270;-41
2023/12/20 08:28:33;;;;;;;11.38;2.17;;;;;;;4.84;100.00;100088.63;5019836;28;20192;-42
2023/12/20 08:30:59;;;;;;;5.93;2.05;;;;;;;4.85;100.00;100094.81;5010408;28;20639;-41
2023/12/20 08:33:25;;;;;;;9.68;1.85;;;;;;;4.81;100.00;100114.38;5026294;28;20242;-41
2023/12/20 08:35:50;;;;;;;10.40;2.38;;;;;;;4.80;100.00;100112.63;5011311;28;20204;-41
2023/12/20 08:38:17;;;;;;;10.80;2.22;;;;;;;4.78;100.00;100109.16;5012640;28;20183;-41
2023/12/20 08:40:43;;;;;;;6.47;1.25;;;;;;;4.61;100.00;100110.44;5010724;28;20543;-43
2023/12/20 08:43:09;;;;;;;10.25;1.70;;;;;;;4.56;100.00;100114.13;5013239;28;20248;-43
2023/12/20 08:45:34;;;;;;;5.10;1.13;;;;;;;4.51;100.00;100116.91;5010731;28;20267;-43
2023/12/20 08:48:00;;;;;;;5.85;0.95;;;;;;;4.37;100.00;100087.19;5024700;28;20284;-41
2023/12/20 08:50:25;;;;;;;4.40;1.17;;;;;;;4.41;100.00;100092.38;5014677;28;20188;-41
2023/12/20 08:52:51;;;;;;;6.15;0.90;;;;;;;4.31;100.00;100097.06;5010159;28;20696;-40
2023/12/20 08:55:18;;;;;;;2.00;0.82;;;;;;;4.33;100.00;100075.81;5011155;28;20234;-41
2023/12/20 08:57:43;;;;;;;3.22;1.20;;;;;;;4.21;100.00;100086.72;5012057;28;20184;-42
2023/12/20 09:00:09;;;;;;;2.78;0.98;;;;;;;4.25;100.00;100094.53;5009571;28;20188;-41
2023/12/20 09:02:36;;;;;;;4.82;0.95;;;;;;;4.27;100.00;100103.34;5012358;28;20201;-39
2023/12/20 09:05:02;;;;;;;4.18;0.85;;;;;;;4.25;100.00;100113.09;5014781;28;20188;-44
2023/12/20 09:07:30;;;;;;;6.38;1.27;;;;;;;4.26;100.00;100119.28;5012274;28;20196;-41
2023/12/20 09:09:56;;;;;;;3.92;0.65;;;;;;;4.17;100.00;100125.66;5011414;28;20283;-42
2023/12/20 09:12:22;;;;;;;3.78;0.90;;;;;;;4.17;100.00;100109.75;5003316;28;20208;-42
2023/12/20 09:14:48;;;;;;;4.15;0.90;;;;;;;4.17;100.00;100114.19;5009802;28;20181;-40
2023/12/20 09:17:16;;;;;;;3.67;0.60;;;;;;;4.08;100.00;100129.41;5008797;28;20185;-44
2023/12/20 09:19:41;;;;;;;7.50;1.02;;;;;;;4.10;100.00;100132.03;5009397;28;20273;-42
2023/12/20 09:22:07;;;;;;;5.85;0.60;;;;;;;4.09;100.00;100149.72;5009424;28;20408;-43
2023/12/20 09:24:33;;;;;;;3.50;0.70;;;;;;;4.03;100.00;100147.19;5009873;28;20192;-43
2023/12/20 09:26:58;;;;;;;5.18;0.80;;;;;;;4.05;100.00;100145.38;5020808;28;20184;-41
2023/12/20 09:29:24;;;;;;;2.08;0.50;;;;;;;4.02;100.00;100147.22;5010689;28;20275;-43
2023/12/20 09:31:50;;;;;;;2.22;0.68;;;;;;;4.04;100.00;100163.97;5012589;28;20258;-43
2023/12/20 09:34:19;;;;;;;4.55;0.90;;;;;;;4.01;100.00;100164.91;5022625;28;20196;-43
2023/12/20 09:36:47;;;;;;;5.45;0.82;;;;;;;3.96;100.00;100160.59;5010076;28;20185;-42
2023/12/20 09:39:21;;;;;;;3.58;1.35;;;;;;;4.02;100.00;100166.63;5010722;28;20193;-42
2023/12/20 09:42:04;;;;;;;5.15;0.95;;;;;;;4.07;100.00;100179.81;5010877;28;20204;-43
2023/12/20 09:44:31;;;;;;;4.70;0.85;;;;;;;4.12;100.00;100172.63;5025305;28;20669;-43
2023/12/20 09:46:57;;;;;;;4.65;0.90;;;;;;;4.03;100.00;100172.84;5011683;28;20211;-43
2023/12/20 09:49:23;;;;;;;2.80;0.73;;;;;;;4.12;100.00;100176.13;5013741;28;20290;-42
2023/12/20 09:51:53;;;;;;;6.30;1.23;;;;;;;4.12;100.00;100191.19;5009771;28;20266;-43
2023/12/20 09:54:20;;;;;;;5.63;1.25;;;;;;;4.00;100.00;100176.44;5010463;28;20595;-40
2023/12/20 09:56:47;;;;;;;2.33;0.68;;;;;;;4.03;100.00;100168.41;5011416;28;20612;-42
2023/12/20 09:59:13;;;;;;;2.40;0.68;;;;;;;4.08;100.00;100161.22;5011722;28;20268;-42
2023/12/20 10:01:40;;;;;;;2.92;0.60;;;;;;;4.00;100.00;100173.78;5009734;28;20197;-41
2023/12/20 10:04:08;;;;;;;5.00;1.00;;;;;;;4.00;100.00;100165.81;5011223;28;20579;-42
2023/12/20 10:06:40;;;;;;;4.78;1.00;;;;;;;4.08;100.00;100165.66;5009385;28;20279;-43
2023/12/20 10:09:06;;;;;;;4.75;0.98;;;;;;;4.21;100.00;100164.47;5011442;28;20262;-44
2023/12/20 10:11:32;;;;;;;5.88;1.10;;;;;;;4.12;100.00;100165.53;5009858;28;20204;-44
2023/12/20 10:14:03;;;;;;;7.13;1.08;;;;;;;4.18;100.00;100166.31;5010282;28;20189;-45
2023/12/20 10:16:29;;;;;;;4.93;1.00;;;;;;;4.20;100.00;100168.03;5010795;28;20554;-43
2023/12/20 10:18:56;;;;;;;7.05;1.50;;;;;;;4.26;100.00;100164.34;5009723;28;20643;-44
2023/12/20 10:21:26;;;;;;;7.75;1.52;;;;;;;4.44;100.00;100155.97;5008669;28;20272;-43
2023/12/20 10:23:55;;;;;;;8.13;1.10;;;;;;;4.57;100.00;100160.97;5008504;28;20216;-43
2023/12/20 10:26:27;;;;;;;5.40;1.08;;;;;;;4.42;100.00;100180.81;5012632;28;20209;-41
2023/12/20 10:28:55;;;;;;;9.45;1.30;;;;;;;4.17;100.00;100164.56;5007915;28;20225;-45
2023/12/20 10:31:28;;;;;;;6.43;1.77;;;;;;;4.22;100.00;100160.03;5008196;28;20177;-43
2023/12/20 10:33:58;;;;;;;5.63;1.08;;;;;;;4.07;100.00;100167.44;5013180;28;20194;-45
2023/12/20 10:36:26;;;;;;;6.85;1.10;;;;;;;4.05;100.00;100160.41;5013546;28;20181;-41
2023/12/20 10:38:53;;;;;;;8.75;1.05;;;;;;;4.20;100.00;100160.06;5014434;28;20209;-40
2023/12/20 10:41:29;;;;;;;9.80;1.00;;;;;;;4.20;100.00;100145.91;5014390;28;20198;-41
2023/12/20 10:43:59;;;;;;;2.92;1.10;;;;;;;4.38;100.00;100139.34;5026726;28;20188;-40
2023/12/20 10:46:26;;;;;;;8.48;1.45;;;;;;;4.43;100.00;100140.09;5012474;28;20172;-43
2023/12/20 10:48:54;;;;;;;6.30;1.20;;;;;;;4.44;100.00;100136.50;5012955;28;20183;-42
2023/12/20 10:51:21;;;;;;;8.45;1.40;;;;;;;4.38;100.00;100145.50;5012027;28;20201;-42
2023/12/20 10:53:50;;;;;;;5.57;1.10;;;;;;;4.37;100.00;100135.78;5013772;28;20169;-43
2023/12/20 10:56:18;;;;;;;8.02;1.23;;;;;;;4.44;100.00;100132.09;5012966;28;20249;-42
2023/12/20 10:58:44;;;;;;;8.85;1.30;;;;;;;4.37;100.00;100135.78;5013184;28;20627;-43
2023/12/20 11:01:13;;;;;;;7.13;1.20;;;;;;;4.38;100.00;100124.28;5017365;28;20654;-44
2023/12/20 11:03:44;;;;;;;7.75;1.42;;;;;;;4.22;100.00;100129.09;5011328;28;20632;-40
2023/12/20 11:06:26;;;;;;;10.93;1.73;;;;;;;4.22;100.00;100115.84;5017270;28;20177;-43
2023/12/20 11:09:24;;;;;;;8.68;1.50;;;;;;;4.40;100.00;100121.63;5014297;28;20254;-43
2023/12/20 11:12:25;;;;;;;6.55;1.42;;;;;;;4.56;100.00;100116.78;5012189;28;20213;-40
2023/12/20 11:14:55;;;;;;;15.32;1.50;;;;;;;4.82;100.00;100114.34;5012062;28;20589;-43
2023/12/20 11:17:21;;;;;;;8.38;1.95;;;;;;;4.81;100.00;100123.22;5026152;28;20685;-42
2023/12/20 11:19:52;;;;;;;8.40;1.42;;;;;;;4.84;100.00;100109.00;5016709;28;20180;-41
2023/12/20 11:22:22;;;;;;;7.30;1.27;;;;;;;4.75;100.00;100094.19;5002408;28;20857;-44
2023/12/20 11:24:48;;;;;;;3.38;0.93;;;;;;;4.50;100.00;100113.41;5015544;28;20184;-41
2023/12/20 11:27:14;;;;;;;6.72;1.50;;;;;;;4.52;100.00;100114.19;5012787;28;20192;-42
2023/12/20 11:29:41;;;;;;;8.48;2.20;;;;;;;4.42;100.00;100106.53;5012835;28;20185;-44
2023/12/20 11:32:28;;;;;;;11.48;1.88;;;;;;;4.49;100.00;100132.00;5012187;28;20227;-41
2023/12/20 11:35:19;;;;;;;7.55;1.70;;;;;;;4.40;100.00;100127.78;5012688;28;20190;-44
2023/12/20 11:37:47;;;;;;;12.60;1.60;;;;;;;4.44;100.00;100136.50;5010480;28;20189;-40
2023/12/20 11:40:15;;;;;;;13.07;1.63;;;;;;;4.37;100.00;100125.19;5024570;28;20202;-44
2023/12/20 11:42:42;;;;;;;10.68;2.15;;;;;;;4.23;100.00;100122.00;5010958;28;20283;-44
2023/12/20 11:45:21;;;;;;;8.05;1.42;;;;;;;4.31;100.00;100130.66;5011277;28;20592;-44
2023/12/20 11:47:51;;;;;;;5.68;1.30;;;;;;;4.41;100.00;100128.66;5022448;28;20196;-42
2023/12/20 11:50:18;;;;;;;16.60;1.75;;;;;;;4.53;100.00;100118.63;5009801;28;20286;-42
2023/12/20 11:52:43;;;;;;;10.18;1.60;;;;;;;4.46;100.00;100124.97;5008540;28;20224;-44
2023/12/20 11:55:09;;;;;;;11.05;1.73;;;;;;;4.43;100.00;100118.88;4998269;28;20196;-43
2023/12/20 11:57:36;;;;;;;7.68;1.30;;;;;;;4.60;100.00;100118.47;5011108;28;20612;-44
2023/12/20 12:00:02;;;;;;;7.32;1.45;;;;;;;4.65;100.00;100114.75;5017455;28;20287;-43
2023/12/20 12:02:37;;;;;;;11.35;1.65;;;;;;;4.64;100.00;100099.78;5009425;28;20234;-42
2023/12/20 12:05:05;;;;;;;10.57;2.80;;;;;;;4.60;100.00;100108.72;5015885;28;20571;-44
2023/12/20 12:07:31;;;;;;;9.40;2.03;;;;;;;4.93;100.00;100103.44;5012342;28;20643;-42
2023/12/20 12:09:58;;;;;;;14.25;1.92;;;;;;;4.85;100.00;100106.28;5011630;28;20181;-44
2023/12/20 12:12:25;;;;;;;14.80;2.47;;;;;;;4.89;100.00;100099.97;5011691;28;20782;-43
2023/12/20 12:14:50;;;;;;;10.63;1.92;;;;;;;4.93;100.00;100101.66;5012708;28;20181;-43
2023/12/20 12:17:16;;;;;;;12.70;1.83;;;;;;;5.15;100.00;100093.09;5014341;28;20188;-43
2023/12/20 12:19:43;;;;;;;13.55;2.65;;;;;;;5.22;100.00;100115.03;5012679;28;20181;-44
2023/12/20 12:22:13;;;;;;;12.63;2.20;;;;;;;5.26;100.00;100120.22;5012611;28;20211;-43
2023/12/20 12:24:44;;;;;;;12.73;2.08;;;;;;;5.03;100.00;100130.59;5011687;28;20184;-43
2023/12/20 12:27:10;;;;;;;13.77;2.28;;;;;;;4.52;100.00;100114.19;5011126;28;20191;-42
2023/12/20 12:29:36;;;;;;;8.63;1.95;;;;;;;4.17;100.00;100107.09;5011790;28;20185;-42
2023/12/20 12:32:07;;;;;;;12.80;2.70;;;;;;;4.09;100.00;100131.16;5011801;28;20248;-41
2023/12/20 12:34:36;;;;;;;7.50;2.35;;;;;;;3.91;100.00;100095.34;5010745;28;20199;-42
2023/12/20 12:37:03;;;;;;;6.50;2.35;;;;;;;3.81;100.00;100088.50;5012953;28;20192;-42
2023/12/20 12:39:30;;;;;;;8.70;2.60;;;;;;;3.80;100.00;100096.47;5011542;28;20195;-42